Time,TemperatureF,DewpointF,PressureIn,WindDirection,WindDirectionDegrees,WindSpeedMPH,WindSpeedGustMPH,Humidity,HourlyPrecipIn,Conditions,Clouds,dailyrainin,SoftwareType,DateUTC
2013-03-08 00:10:00,45.5,17.0,29.63,East,88,0.0,-999.0,32,-99.99,,,0.00,weatherlink.com 1.10,2013-03-08 07:10:00,
2013-03-08 00:25:00,45.8,18.0,29.63,East,88,0.0,-999.0,33,-99.99,,,0.00,weatherlink.com 1.10,2013-03-08 07:25:00,
2013-03-08 00:40:00,47.1,15.0,29.63,ESE,105,0.0,-999.0,28,-99.99,,,0.00,weatherlink.com 1.10,2013-03-08 07:40:00,
2013-03-08 00:55:00,53.2,14.0,29.63,South,190,0.0,-999.0,21,-99.99,,,0.00,weatherlink.com 1.10,2013-03-08 07:55:00,
2013-03-08 01:10:00,54.4,15.0,29.61,South,170,0.0,-999.0,21,-99.99,,,0.00,weatherlink.com 1.10,2013-03-08 08:10:00,
2013-03-08 01:25:00,55.1,16.0,29.60,South,169,1.0,-999.0,21,-99.99,,,0.00,weatherlink.com 1.10,2013-03-08 08:25:00,
2013-03-08 01:40:00,56.9,15.0,29.59,South,180,0.0,-999.0,19,-99.99,,,0.00,weatherlink.com 1.10,2013-03-08 08:40:00,
2013-03-08 01:55:00,57.2,15.0,29.59,SSW,207,3.0,-999.0,19,-99.99,,,0.00,weatherlink.com 1.10,2013-03-08 08:55:00,
2013-03-08 02:10:00,56.5,16.0,29.59,SSE,154,0.0,-999.0,20,-99.99,,,0.00,weatherlink.com 1.10,2013-03-08 09:10:00,
2013-03-08 02:25:00,55.6,16.0,29.59,SE,139,0.0,-999.0,21,-99.99,,,0.00,weatherlink.com 1.10,2013-03-08 09:25:00,
2013-03-08 02:40:00,55.3,16.0,29.59,SSW,208,2.0,-999.0,21,-99.99,,,0.00,weatherlink.com 1.10,2013-03-08 09:40:00,
2013-03-08 02:55:00,56.3,14.0,29.59,South,184,3.0,-999.0,19,-99.99,,,0.00,weatherlink.com 1.10,2013-03-08 09:55:00,
2013-03-08 03:10:00,56.3,13.0,29.58,SSW,194,5.0,-999.0,18,-99.99,,,0.00,weatherlink.com 1.10,2013-03-08 10:10:00,
2013-03-08 03:25:00,55.9,13.0,29.58,SSE,153,4.0,-999.0,18,-99.99,,,0.00,weatherlink.com 1.10,2013-03-08 10:25:00,
2013-03-08 03:40:00,55.9,13.0,29.58,SSE,155,1.0,-999.0,18,-99.99,,,0.00,weatherlink.com 1.10,2013-03-08 10:40:00,
2013-03-08 03:55:00,55.9,13.0,29.58,South,182,5.0,-999.0,18,-99.99,,,0.00,weatherlink.com 1.10,2013-03-08 10:55:00,
2013-03-08 04:10:00,55.1,13.0,29.57,SE,126,1.0,-999.0,19,-99.99,,,0.00,weatherlink.com 1.10,2013-03-08 11:10:00,
2013-03-08 04:25:00,55.6,14.0,29.57,SSE,155,5.0,-999.0,19,-99.99,,,0.00,weatherlink.com 1.10,2013-03-08 11:25:00,
2013-03-08 04:40:00,55.1,15.0,29.57,ESE,117,0.0,-999.0,20,-99.99,,,0.00,weatherlink.com 1.10,2013-03-08 11:40:00,
2013-03-08 04:55:00,54.1,15.0,29.58,ESE,117,1.0,-999.0,21,-99.99,,,0.00,weatherlink.com 1.10,2013-03-08 11:55:00,
2013-03-08 05:10:00,52.9,15.0,29.58,ESE,117,0.0,-999.0,22,-99.99,,,0.00,weatherlink.com 1.10,2013-03-08 12:10:00,
2013-03-08 05:25:00,52.6,17.0,29.60,SE,125,0.0,-999.0,24,-99.99,,,0.00,weatherlink.com 1.10,2013-03-08 12:25:00,
2013-03-08 05:40:00,54.1,17.0,29.60,South,173,3.0,-999.0,23,-99.99,,,0.00,weatherlink.com 1.10,2013-03-08 12:40:00,
2013-03-08 05:55:00,55.4,18.0,29.59,SE,125,0.0,-999.0,23,-99.99,,,0.00,weatherlink.com 1.10,2013-03-08 12:55:00,
2013-03-08 06:10:00,53.6,17.0,29.59,SSE,156,0.0,-999.0,24,-99.99,,,0.00,weatherlink.com 1.10,2013-03-08 13:10:00,
2013-03-08 06:25:00,52.6,18.0,29.62,SSE,156,0.0,-999.0,26,-99.99,,,0.00,weatherlink.com 1.10,2013-03-08 13:25:00,
2013-03-08 06:40:00,52.2,17.0,29.62,NNW,346,0.0,-999.0,25,-99.99,,,0.00,weatherlink.com 1.10,2013-03-08 13:40:00,
2013-03-08 06:55:00,52.0,17.0,29.62,NNW,346,0.0,-999.0,25,-99.99,,,0.00,weatherlink.com 1.10,2013-03-08 13:55:00,
2013-03-08 07:10:00,51.7,18.0,29.63,SSE,152,0.0,-999.0,26,-99.99,,,0.00,weatherlink.com 1.10,2013-03-08 14:10:00,
2013-03-08 07:25:00,53.3,18.0,29.65,SSE,149,4.0,-999.0,25,-99.99,,,0.00,weatherlink.com 1.10,2013-03-08 14:25:00,
2013-03-08 07:40:00,55.3,19.0,29.65,SE,138,1.0,-999.0,24,-99.99,,,0.00,weatherlink.com 1.10,2013-03-08 14:40:00,
2013-03-08 07:55:00,55.6,19.0,29.65,SE,138,3.0,-999.0,24,-99.99,,,0.00,weatherlink.com 1.10,2013-03-08 14:55:00,
2013-03-08 08:10:00,55.4,19.0,29.64,SW,217,0.0,-999.0,24,-99.99,,,0.00,weatherlink.com 1.10,2013-03-08 15:10:00,
2013-03-08 08:25:00,54.5,19.0,29.65,SW,217,0.0,-999.0,25,-99.99,,,0.00,weatherlink.com 1.10,2013-03-08 15:25:00,
2013-03-08 08:40:00,54.4,20.0,29.65,WNW,284,2.0,-999.0,26,-99.99,,,0.00,weatherlink.com 1.10,2013-03-08 15:40:00,
2013-03-08 08:55:00,54.8,20.0,29.65,South,184,0.0,-999.0,26,-99.99,,,0.00,weatherlink.com 1.10,2013-03-08 15:55:00,
2013-03-08 09:10:00,55.0,20.0,29.65,WSW,257,0.0,-999.0,26,-99.99,,,0.00,weatherlink.com 1.10,2013-03-08 16:10:00,
2013-03-08 09:25:00,-999.0,-99.9,29.66,North,-999,-999.0,-999.0,-999,-99.99,,,0.00,weatherlink.com 1.10,2013-03-08 16:25:00,
2013-03-08 09:41:00,55.3,26.0,29.65,SSE,153,15.0,-999.0,32,-99.99,,,0.00,weatherlink.com 1.10,2013-03-08 16:41:00,
2013-03-08 09:55:00,54.5,27.0,29.66,SE,143,13.0,-999.0,35,-99.99,,,0.00,weatherlink.com 1.10,2013-03-08 16:55:00,
2013-03-08 10:11:00,54.1,28.0,29.67,ESE,106,3.0,-999.0,37,-99.99,,,0.00,weatherlink.com 1.10,2013-03-08 17:11:00,
2013-03-08 10:26:00,54.1,28.0,29.68,SSW,194,5.0,-999.0,37,-99.99,,,0.00,weatherlink.com 1.10,2013-03-08 17:26:00,
2013-03-08 10:41:00,53.9,29.0,29.66,ESE,115,2.0,-999.0,39,-99.99,,,0.00,weatherlink.com 1.10,2013-03-08 17:41:00,
2013-03-08 10:56:00,53.6,29.0,29.68,SE,137,5.0,-999.0,39,-99.99,,,0.00,weatherlink.com 1.10,2013-03-08 17:56:00,
2013-03-08 11:11:00,53.3,30.0,29.67,SSE,148,15.0,-999.0,41,-99.99,,,0.00,weatherlink.com 1.10,2013-03-08 18:11:00,
2013-03-08 11:26:00,51.7,32.0,29.69,East,98,5.0,-999.0,47,-99.99,,,0.00,weatherlink.com 1.10,2013-03-08 18:26:00,
2013-03-08 11:41:00,51.4,33.0,29.69,ESE,103,5.0,-999.0,49,-99.99,,,0.00,weatherlink.com 1.10,2013-03-08 18:41:00,
2013-03-08 11:56:00,50.7,33.0,29.69,SE,126,1.0,-999.0,52,-99.99,,,0.00,weatherlink.com 1.10,2013-03-08 18:56:00,
2013-03-08 12:11:00,49.8,35.0,29.69,SSE,154,5.0,-999.0,58,-99.99,,,0.00,weatherlink.com 1.10,2013-03-08 19:11:00,
2013-03-08 12:26:00,49.4,35.0,29.65,East,85,0.0,-999.0,59,-99.99,,,0.00,weatherlink.com 1.10,2013-03-08 19:26:00,
2013-03-08 12:41:00,49.6,36.0,29.65,ESE,109,0.0,-999.0,59,-99.99,,,0.00,weatherlink.com 1.10,2013-03-08 19:41:00,
2013-03-08 12:56:00,49.1,36.0,29.63,SE,126,1.0,-999.0,60,-99.99,,,0.00,weatherlink.com 1.10,2013-03-08 19:56:00,
2013-03-08 13:11:00,48.6,38.0,29.64,SSE,164,4.0,-999.0,67,-99.99,,,0.00,weatherlink.com 1.10,2013-03-08 20:11:00,
2013-03-08 13:26:00,48.8,37.0,29.60,SSE,162,5.0,-999.0,63,-99.99,,,0.00,weatherlink.com 1.10,2013-03-08 20:26:00,
2013-03-08 13:41:00,49.4,36.0,29.60,SSE,156,1.0,-999.0,60,-99.99,,,0.00,weatherlink.com 1.10,2013-03-08 20:41:00,
2013-03-08 13:56:00,49.5,36.0,29.59,SSE,148,4.0,-999.0,59,-99.99,,,0.00,weatherlink.com 1.10,2013-03-08 20:56:00,
2013-03-08 14:11:00,50.2,36.0,29.58,ESE,109,1.0,-999.0,58,-99.99,,,0.00,weatherlink.com 1.10,2013-03-08 21:11:00,
2013-03-08 14:26:00,51.1,35.0,29.57,ESE,121,1.0,-999.0,54,-99.99,,,0.00,weatherlink.com 1.10,2013-03-08 21:26:00,
2013-03-08 14:41:00,52.5,35.0,29.55,South,182,2.0,-999.0,51,-99.99,,,0.00,weatherlink.com 1.10,2013-03-08 21:41:00,
2013-03-08 14:56:00,55.0,35.0,29.54,ESE,123,3.0,-999.0,47,-99.99,,,0.00,weatherlink.com 1.10,2013-03-08 21:56:00,
2013-03-08 15:11:00,54.5,34.0,29.52,East,101,3.0,-999.0,46,-99.99,,,0.00,weatherlink.com 1.10,2013-03-08 22:11:00,
2013-03-08 15:26:00,55.1,33.0,29.51,SE,130,2.0,-999.0,43,-99.99,,,0.00,weatherlink.com 1.10,2013-03-08 22:26:00,
2013-03-08 15:41:00,54.8,32.0,29.50,SE,132,0.0,-999.0,42,-99.99,,,0.00,weatherlink.com 1.10,2013-03-08 22:41:00,
2013-03-08 15:56:00,54.5,32.0,29.50,ESE,117,2.0,-999.0,42,-99.99,,,0.00,weatherlink.com 1.10,2013-03-08 22:56:00,
2013-03-08 16:11:00,54.1,31.0,29.50,South,173,6.0,-999.0,42,-99.99,,,0.00,weatherlink.com 1.10,2013-03-08 23:11:00,
2013-03-08 16:26:00,53.6,31.0,29.49,East,90,3.0,-999.0,42,-99.99,,,0.00,weatherlink.com 1.10,2013-03-08 23:26:00,
2013-03-08 16:41:00,53.5,31.0,29.49,SSE,149,5.0,-999.0,42,-99.99,,,0.00,weatherlink.com 1.10,2013-03-08 23:41:00,
2013-03-08 16:56:00,-999.0,-99.9,29.47,North,-999,-999.0,-999.0,-999,-99.99,,,0.00,weatherlink.com 1.10,2013-03-08 23:56:00,
2013-03-08 17:11:00,52.9,31.0,29.47,East,80,0.0,-999.0,43,-99.99,,,0.00,weatherlink.com 1.10,2013-03-09 00:11:00,
2013-03-08 17:26:00,52.8,31.0,29.48,SSW,202,4.0,-999.0,43,-99.99,,,0.00,weatherlink.com 1.10,2013-03-09 00:26:00,
2013-03-08 17:41:00,52.5,31.0,29.47,South,189,0.0,-999.0,44,-99.99,,,0.00,weatherlink.com 1.10,2013-03-09 00:41:00,
2013-03-08 17:56:00,52.0,32.0,29.48,NE,39,1.0,-999.0,47,-99.99,,,0.00,weatherlink.com 1.10,2013-03-09 00:56:00,
2013-03-08 18:11:00,51.7,33.0,29.48,NE,39,0.0,-999.0,50,-99.99,,,0.00,weatherlink.com 1.10,2013-03-09 01:11:00,
2013-03-08 18:26:00,51.4,34.0,29.49,NNW,330,0.0,-999.0,52,-99.99,,,0.00,weatherlink.com 1.10,2013-03-09 01:26:00,
2013-03-08 18:41:00,50.5,36.0,29.49,West,270,5.0,-999.0,57,-99.99,,,0.00,weatherlink.com 1.10,2013-03-09 01:41:00,
2013-03-08 18:56:00,49.4,36.0,29.49,West,267,3.0,-999.0,60,-99.99,,,0.00,weatherlink.com 1.10,2013-03-09 01:56:00,
2013-03-08 19:11:00,49.2,36.0,29.50,NNW,332,1.0,-999.0,60,-99.99,,,0.00,weatherlink.com 1.10,2013-03-09 02:11:00,
2013-03-08 19:26:00,50.1,31.0,29.50,SSE,148,5.0,-999.0,48,-99.99,,,0.00,weatherlink.com 1.10,2013-03-09 02:26:00,
2013-03-08 19:41:00,50.2,31.0,29.50,SSE,157,1.0,-999.0,48,-99.99,,,0.00,weatherlink.com 1.10,2013-03-09 02:41:00,
2013-03-08 19:56:00,49.9,31.0,29.49,East,96,3.0,-999.0,48,-99.99,,,0.00,weatherlink.com 1.10,2013-03-09 02:56:00,
2013-03-08 20:11:00,49.4,30.0,29.50,SSE,161,0.0,-999.0,48,-99.99,,,0.00,weatherlink.com 1.10,2013-03-09 03:11:00,
2013-03-08 20:26:00,49.4,30.0,29.50,East,89,2.0,-999.0,47,-99.99,,,0.00,weatherlink.com 1.10,2013-03-09 03:26:00,
2013-03-08 20:41:00,49.5,29.0,29.50,ESE,110,4.0,-999.0,45,-99.99,,,0.00,weatherlink.com 1.10,2013-03-09 03:41:00,
2013-03-08 20:56:00,49.4,29.0,29.50,East,84,2.0,-999.0,45,-99.99,,,0.00,weatherlink.com 1.10,2013-03-09 03:56:00,
2013-03-08 21:11:00,49.1,29.0,29.50,ESE,102,0.0,-999.0,47,-99.99,,,0.00,weatherlink.com 1.10,2013-03-09 04:11:00,
2013-03-08 21:26:00,48.6,31.0,29.51,ESE,102,0.0,-999.0,51,-99.99,,,0.00,weatherlink.com 1.10,2013-03-09 04:26:00,
2013-03-08 21:41:00,48.3,31.0,29.51,ESE,102,0.0,-999.0,51,-99.99,,,0.00,weatherlink.com 1.10,2013-03-09 04:41:00,
2013-03-08 21:56:00,48.6,30.0,29.50,ENE,64,2.0,-999.0,49,-99.99,,,0.00,weatherlink.com 1.10,2013-03-09 04:56:00,
2013-03-08 22:11:00,48.0,30.0,29.50,ENE,64,0.0,-999.0,51,-99.99,,,0.00,weatherlink.com 1.10,2013-03-09 05:11:00,
2013-03-08 22:26:00,47.6,30.0,29.50,ENE,64,0.0,-999.0,51,-99.99,,,0.00,weatherlink.com 1.10,2013-03-09 05:26:00,
2013-03-08 22:41:00,47.7,31.0,29.50,NW,315,2.0,-999.0,52,-99.99,,,0.00,weatherlink.com 1.10,2013-03-09 05:41:00,
2013-03-08 22:56:00,47.6,31.0,29.50,East,96,2.0,-999.0,54,-99.99,,,0.00,weatherlink.com 1.10,2013-03-09 05:56:00,
2013-03-08 23:11:00,47.3,31.0,29.50,SSE,162,0.0,-999.0,54,-99.99,,,0.00,weatherlink.com 1.10,2013-03-09 06:11:00,
2013-03-08 23:26:00,47.9,30.0,29.51,SE,144,0.0,-999.0,50,-99.99,,,0.00,weatherlink.com 1.10,2013-03-09 06:26:00,
2013-03-08 23:41:00,48.3,30.0,29.50,East,96,2.0,-999.0,50,-99.99,,,0.00,weatherlink.com 1.10,2013-03-09 06:41:00,
2013-03-08 23:56:00,48.3,30.0,29.50,SE,132,2.0,-999.0,50,-99.99,,,0.00,weatherlink.com 1.10,2013-03-09 06:56:00,